Weather observations for the past three days for
Spartanburg Memorial
Imperial (Metric)
Date Time (edt) Wind (mph) Vis. (mi.) Weather Sky Cond. Temperature (ºF) Relative Humidity Wind Chill (°F) Heat Index (°F) Pressure Precipitation (in)
Air Dwpt 6 hour altimeter (in) sea level (mb) 1 hr 3 hr 6 hr
Max. Min.
10 10:35 NE 3 7.00 Fair CLR 73.4 51.8 47% 30.03 0.0
10 10:15 Calm 10.00 Fair CLR 71.6 51.8 50% 30.03 0.0
10 09:55 NE 5 10.00 Fair CLR 71.6 51.8 50% 30.02 0.0
10 09:35 N 3 10.00 Fair CLR 69.8 51.8 53% 30.03 0.0
10 09:15 N 3 10.00 Fair CLR 68 53.6 60% 30.02 0.0
10 08:55 N 6 10.00 Fair CLR 66.2 53.6 64% 30.02 0.0
10 08:35 N 5 10.00 Fair CLR 64.4 53.6 68% 30.02 0.0
10 08:15 N 3 10.00 Fair CLR 62.6 53.6 73% 30.01 0.0
10 07:55 Calm 10.00 Fair CLR 60.8 55.4 83% 30 0.0
10 07:35 Calm 10.00 Fair CLR 59 55.4 88% 30 0.0
10 07:15 NE 3 7.00 Fair CLR 55.4 53.6 94% 29.99 0.0
10 06:55 Calm 0.75 Fog/Mist VV005 55.4 53.6 94% 29.97 0.0
10 06:35 Calm 0.25 Fog BKN001 55.4 53.6 94% 29.98 0.0
10 06:15 Calm 7.00 Fair CLR 55.4 53.6 94% 29.97 0.0
10 05:55 Calm 5.00 Fog/Mist CLR 55.4 55.4 100% 29.96 0.0
10 05:35 E 3 7.00 Fair CLR 57.2 55.4 94% 29.95 0.0
10 05:15 Calm 10.00 Fair CLR 59 55.4 88% 29.94 0.0
10 04:55 Calm 10.00 Fair CLR 59 55.4 88% 29.94 0.0
10 04:35 Calm 10.00 Fair CLR 59 57.2 94% 29.93 0.0
10 04:15 W 5 10.00 Fair CLR 59 55.4 88% 29.93 0.0
10 03:35 Calm 7.00 Fair CLR 59 55.4 88% 29.91 0.0
10 03:15 Calm 7.00 Fair CLR 59 55.4 88% 29.91 0.0
10 02:55 Calm 10.00 Fair CLR 59 57.2 94% 29.92 0.0
10 02:35 Calm 10.00 Fair CLR 59 57.2 94% 29.91 0.0
10 02:15 Calm 10.00 Fair CLR 60.8 57.2 88% 29.91 0.0
10 01:55 Calm 10.00 Fair CLR 60.8 57.2 88% 29.91 0.0
10 01:35 W 3 10.00 Fair CLR 60.8 57.2 88% 29.93 0.0
10 01:15 SW 3 10.00 Fair CLR 60.8 59 94% 29.92 0.0
10 00:55 SW 3 10.00 Fair CLR 60.8 59 94% 29.93 0.0
10 00:35 Calm 10.00 Fair CLR 60.8 59 94% 29.92 0.0
10 00:15 SW 3 10.00 Fair CLR 62.6 59 88% 29.92 0.0
09 23:55 W 3 10.00 Fair CLR 62.6 59 88% 29.92 0.0
09 23:35 W 5 10.00 Fair CLR 62.6 59 88% 29.92 0.0
09 23:15 SW 6 10.00 Fair CLR 62.6 59 88% 29.92 0.0
09 22:55 SW 6 10.00 Fair CLR 62.6 59 88% 29.92 0.0
09 22:35 SW 6 10.00 Fair CLR 64.4 57.2 78% 29.92 0.0
09 22:15 SW 5 10.00 Fair CLR 64.4 57.2 78% 29.92 0.0
09 21:55 SW 5 10.00 Fair CLR 64.4 57.2 78% 29.91 0.0
09 21:35 SW 3 10.00 Fair CLR 64.4 57.2 78% 29.9 0.0
09 21:15 SW 5 10.00 Fair CLR 66.2 57.2 73% 29.9 0.0
09 20:55 SW 3 10.00 Fair CLR 66.2 57.2 73% 29.89 0.0
09 20:35 SW 6 10.00 Fair CLR 68 57.2 69% 29.88 0.0
09 20:15 SW 6 10.00 Fair CLR 68 57.2 69% 29.87 0.0
09 19:55 SW 6 10.00 Fair CLR 68 57.2 69% 29.87 0.0
09 19:35 SW 3 10.00 Fair CLR 69.8 57.2 64% 29.86 0.0
09 19:15 SW 5 10.00 Fair CLR 69.8 55.4 60% 29.85 0.0
09 18:55 SW 5 10.00 Partly Cloudy SCT040 69.8 55.4 60% 29.85 0.0
09 18:35 S 8 10.00 Partly Cloudy SCT037 69.8 55.4 60% 29.85 0.0
09 18:15 SW 7 10.00 Mostly Cloudy SCT031 BKN038 69.8 55.4 60% 29.85 0.0
09 17:55 SW 8 10.00 Mostly Cloudy SCT033 BKN038 71.6 55.4 57% 29.84 0.0
09 17:35 SW 9 10.00 Partly Cloudy SCT036 71.6 55.4 57% 29.84 0.0
09 17:15 SW 10 10.00 Partly Cloudy SCT032 71.6 55.4 57% 29.84 0.0
09 16:55 SW 7 10.00 Partly Cloudy SCT032 73.4 57.2 57% 29.84 0.0
09 16:35 W 12 G 16 10.00 Fair CLR 73.4 55.4 53% 29.84 0.0
09 16:15 SW 10 G 16 10.00 Partly Cloudy SCT033 73.4 55.4 53% 29.84 0.0
09 15:55 SW 10 10.00 Mostly Cloudy BKN031 BKN037 71.6 55.4 57% 29.85 0.0
09 15:35 SW 8 10.00 Overcast BKN029 OVC034 71.6 55.4 57% 29.85 0.0
09 15:15 SW 8 10.00 Mostly Cloudy BKN027 71.6 55.4 57% 29.85 0.0
09 14:55 SW 8 10.00 Mostly Cloudy BKN029 71.6 55.4 57% 29.85 0.0
09 14:15 SW 8 G 16 10.00 Mostly Cloudy BKN025 69.8 55.4 60% 29.86 0.0
09 13:55 SW 7 10.00 Mostly Cloudy BKN027 BKN034 69.8 55.4 60% 29.87 0.0
09 13:35 SW 7 10.00 Mostly Cloudy BKN027 BKN036 69.8 55.4 60% 29.87 0.0
09 13:15 SW 9 10.00 Overcast OVC027 68 55.4 64% 29.88 0.0
09 12:55 SW 8 10.00 Overcast OVC027 68 55.4 64% 29.89 0.0
09 12:35 SW 6 10.00 Overcast SCT027 OVC039 68 55.4 64% 29.89 0.0
09 12:15 SW 7 10.00 Overcast OVC039 68 53.6 60% 29.89 0.0
09 11:55 SW 7 10.00 Overcast SCT024 OVC043 68 55.4 64% 29.9 0.0
09 11:35 SW 6 10.00 Overcast OVC043 66.2 53.6 64% 29.9 0.0
09 11:15 SW 7 10.00 Overcast SCT032 OVC043 64.4 53.6 68% 29.91 0.0
09 10:55 SW 5 10.00 Overcast OVC043 64.4 53.6 68% 29.9 0.0
09 10:35 W 6 10.00 Overcast OVC043 64.4 53.6 68% 29.9 0.0
09 10:15 Calm 10.00 Mostly Cloudy BKN043 BKN110 64.4 53.6 68% 29.89 0.0
09 09:55 Calm 10.00 Partly Cloudy SCT060 SCT080 SCT100 62.6 53.6 73% 29.89 0.0
09 09:35 SW 5 10.00 Partly Cloudy SCT110 60.8 53.6 77% 29.89 0.0
09 09:15 S 3 10.00 Mostly Cloudy BKN048 60.8 53.6 77% 29.9 0.0
09 08:55 Calm 10.00 Overcast OVC048 59 51.8 77% 29.91 0.0
09 08:35 Calm 10.00 Mostly Cloudy SCT038 BKN050 BKN100 59 53.6 82% 29.92 0.0
09 08:15 Calm 10.00 Partly Cloudy SCT037 SCT100 55.4 51.8 88% 29.92 0.0
09 07:55 Calm 10.00 Mostly Cloudy BKN090 55.4 51.8 88% 29.91 0.0
09 07:35 Calm 10.00 Overcast OVC100 55.4 51.8 88% 29.91 0.0
09 07:15 Calm 10.00 Overcast SCT065 OVC100 53.6 51.8 94% 29.9 0.0
09 06:55 Calm 10.00 Overcast OVC065 53.6 51.8 94% 29.91 0.0
09 06:35 Calm 10.00 Overcast OVC065 53.6 51.8 94% 29.91 0.0
09 06:15 Calm 10.00 Overcast OVC065 53.6 50 88% 29.91 0.0
09 05:55 Calm 10.00 Overcast OVC065 53.6 50 88% 29.9 0.0
09 05:35 Calm 10.00 Overcast SCT065 OVC110 51.8 50 94% 29.89 0.0
09 05:15 Calm 10.00 Mostly Cloudy BKN110 51.8 50 94% 29.89 0.0
09 04:55 Calm 10.00 Fair CLR 51.8 50 94% 29.89 0.0
09 04:35 Calm 10.00 Fair CLR 50 48.2 94% 29.89 0.0
09 04:15 Calm 10.00 Fair CLR 51.8 48.2 88% 29.89 0.0
09 03:55 Calm 10.00 Fair CLR 51.8 50 94% 29.9 0.0
09 03:35 Calm 10.00 Fair CLR 51.8 48.2 88% 29.89 0.0
09 03:15 Calm 10.00 Fair CLR 51.8 50 94% 29.9 0.0
09 02:55 Calm 10.00 Fair CLR 53.6 50 88% 29.91 0.0
09 02:35 Calm 10.00 Fair CLR 53.6 50 88% 29.93 0.0
09 02:15 Calm 10.00 Fair CLR 55.4 50 82% 29.93 0.0
09 01:55 Calm 10.00 Fair CLR 55.4 50 82% 29.94 0.0
09 01:35 Calm 10.00 Fair CLR 55.4 50 82% 29.95 0.0
09 01:15 Calm 10.00 Fair CLR 55.4 50 82% 29.95 0.0
09 00:55 Calm 10.00 Fair CLR 57.2 50 77% 29.96 0.0
09 00:35 Calm 10.00 Fair CLR 57.2 50 77% 29.96 0.0
09 00:15 Calm 10.00 Partly Cloudy SCT050 59 50 72% 29.97 0.0
08 23:55 Calm 10.00 Partly Cloudy SCT050 59 50 72% 29.98 0.0
08 23:35 Calm 10.00 Fair CLR 59 50 72% 29.98 0.0
08 23:15 Calm 10.00 Fair CLR 59 50 72% 29.98 0.0
08 22:55 Calm 10.00 Fair CLR 60.8 50 68% 29.97 0.0
08 22:35 Calm 10.00 Fair CLR 60.8 50 68% 29.97 0.0
08 22:15 Calm 10.00 Fair CLR 60.8 50 68% 29.98 0.0
08 21:55 Calm 10.00 Fair CLR 60.8 50 68% 29.98 0.0
08 21:35 Calm 10.00 Fair CLR 60.8 50 68% 29.98 0.0
08 21:15 Calm 10.00 Fair CLR 60.8 50 68% 29.97 0.0
08 20:55 Calm 10.00 Fair CLR 62.6 48.2 60% 29.96 0.0
08 20:35 Calm 10.00 Fair CLR 62.6 48.2 60% 29.97 0.0
08 20:15 Calm 10.00 Fair CLR 62.6 50 64% 29.96 0.0
08 19:55 Calm 10.00 Fair CLR 64.4 48.2 56% 29.95 0.0
08 19:35 Calm 10.00 Fair CLR 64.4 46.4 52% 29.96 0.0
08 18:55 S 3 10.00 Fair CLR 66.2 46.4 49% 29.95 0.0
08 18:35 SW 3 10.00 Fair CLR 68 44.6 43% 29.96 0.0
08 18:15 Calm 10.00 Fair CLR 68 44.6 43% 29.95 0.0
08 17:55 Calm 10.00 Fair CLR 68 44.6 43% 29.95 0.0
08 17:35 Calm 10.00 Fair CLR 68 42.8 40% 29.96 0.0
08 17:15 SW 5 10.00 Partly Cloudy SCT060 68 42.8 40% 29.96 0.0
08 16:55 S 3 10.00 Partly Cloudy SCT060 68 42.8 40% 29.96 0.0
08 16:35 S 6 10.00 Partly Cloudy SCT060 69.8 42.8 38% 29.96 0.0
08 16:15 S 3 10.00 Mostly Cloudy BKN060 69.8 42.8 38% 29.97 0.0
08 15:35 W 6 10.00 Fair CLR 69.8 42.8 38% 29.98 0.0
08 15:15 SW 6 10.00 Partly Cloudy SCT050 68 42.8 40% 29.99 0.0
08 14:55 S 6 10.00 Mostly Cloudy BKN050 69.8 42.8 38% 30 0.0
08 14:35 Calm 10.00 Partly Cloudy SCT050 68 42.8 40% 30.01 0.0
08 14:15 S 5 10.00 Mostly Cloudy BKN050 69.8 44.6 40% 30.02 0.0
08 13:35 E 5 10.00 Mostly Cloudy BKN048 BKN050 66.2 42.8 43% 30.03 0.0
08 13:15 Calm 10.00 Mostly Cloudy SCT050 BKN060 68 44.6 43% 30.04 0.0
08 12:55 Calm 10.00 Partly Cloudy SCT045 SCT050 64.4 42.8 46% 30.05 0.0
08 12:35 E 5 10.00 Mostly Cloudy BKN050 68 44.6 43% 30.05 0.0
08 12:15 SE 5 10.00 Partly Cloudy SCT048 66.2 41 40% 30.06 0.0
08 11:55 S 3 10.00 Partly Cloudy SCT044 64.4 42.8 46% 30.07 0.0
08 11:35 SE 5 10.00 Partly Cloudy SCT044 64.4 42.8 46% 30.07 0.0
08 11:15 SE 7 10.00 Partly Cloudy SCT037 SCT046 64.4 42.8 46% 30.07 0.0
08 10:55 SE 5 10.00 Partly Cloudy SCT037 62.6 44.6 52% 30.07 0.0
08 10:35 E 3 10.00 Fair CLR 62.6 42.8 49% 30.07 0.0
08 10:15 SE 6 10.00 Fair CLR 62.6 44.6 52% 30.07 0.0
08 09:35 E 3 7.00 Fair CLR 60.8 42.8 52% 30.08 0.0
08 09:15 E 3 10.00 Fair CLR 59 42.8 55% 30.07 0.0
08 08:55 NE 5 10.00 Fair CLR 59 44.6 59% 30.07 0.0
08 08:35 N 6 10.00 Fair CLR 55.4 44.6 67% 30.07 0.0
08 08:15 N 6 10.00 Fair CLR 55.4 44.6 67% 30.06 0.0
08 07:55 N 3 10.00 Fair CLR 53.6 46.4 77% 30.06 0.0
08 07:35 N 5 10.00 Fair CLR 51.8 46.4 82% 30.05 0.0
08 07:15 N 3 10.00 Fair CLR 50 44.6 82% 30.03 0.0
08 06:55 NE 3 10.00 Fair CLR 50 44.6 82% 30.02 0.0
08 06:35 N 5 10.00 Fair CLR 48.2 44.6 87% 47 30.01 0.0
08 06:15 Calm 10.00 Fair CLR 48.2 46.4 94% 30 0.0
08 05:55 Calm 10.00 Fair CLR 48.2 44.6 87% 29.99 0.0
08 05:35 Calm 10.00 Fair CLR 50 46.4 88% 29.99 0.0
08 05:15 Calm 10.00 Fair CLR 48.2 44.6 87% 29.99 0.0
08 04:55 N 3 10.00 Fair CLR 48.2 44.6 87% 29.99 0.0
08 04:35 Calm 10.00 Fair CLR 50 46.4 88% 29.98 0.0
08 04:15 Calm 10.00 Fair CLR 50 46.4 88% 29.98 0.0
08 03:55 Calm 10.00 Fair CLR 50 46.4 88% 29.98 0.0
08 03:35 Calm 10.00 Fair CLR 50 46.4 88% 29.97 0.0
08 03:15 Calm 10.00 Fair CLR 50 46.4 88% 29.98 0.0
08 02:55 Calm 10.00 Fair CLR 50 46.4 88% 29.97 0.0
08 02:35 Calm 10.00 Fair CLR 50 46.4 88% 29.97 0.0
08 02:15 Calm 10.00 Fair CLR 51.8 46.4 82% 29.96 0.0
08 01:55 Calm 10.00 Fair CLR 51.8 46.4 82% 29.97 0.0
08 01:35 Calm 10.00 Fair CLR 51.8 46.4 82% 29.97 0.0
08 01:15 Calm 10.00 Fair CLR 53.6 44.6 72% 29.97 0.0
08 00:55 Calm 10.00 Fair CLR 55.4 44.6 67% 29.96 0.0
08 00:35 Calm 10.00 Fair CLR 57.2 44.6 63% 29.96 0.0
08 00:15 Calm 10.00 Partly Cloudy SCT050 59 42.8 55% 29.95 0.0
07 23:55 Calm 10.00 Mostly Cloudy BKN050 59 42.8 55% 29.96 0.0
07 23:35 N 6 10.00 Overcast OVC048 60.8 42.8 52% 29.95 0.0
07 23:15 N 6 10.00 Overcast OVC046 62.6 42.8 49% 29.95 0.0
07 22:55 N 5 10.00 Overcast OVC046 62.6 44.6 52% 29.95 0.0
07 22:35 N 6 10.00 Overcast OVC046 62.6 42.8 49% 29.94 0.0
07 22:15 N 9 10.00 Overcast OVC048 62.6 44.6 52% 29.93 0.0
07 21:55 N 3 10.00 Overcast OVC050 62.6 46.4 56% 29.92 0.0
07 21:35 N 6 10.00 Overcast OVC050 62.6 46.4 56% 29.9 0.0
07 21:15 NW 5 10.00 Mostly Cloudy BKN050 62.6 46.4 56% 29.89 0.0
07 20:55 N 9 10.00 Partly Cloudy SCT055 62.6 46.4 56% 29.88 0.0
07 20:35 N 10 10.00 Fair CLR 64.4 48.2 56% 29.86 0.0
07 20:15 NW 13 G 22 10.00 Partly Cloudy SCT050 66.2 48.2 52% 29.85 0.0
07 19:55 NW 13 G 17 10.00 Mostly Cloudy BKN050 68 50 53% 29.83 0.0
07 19:35 NW 12 G 16 10.00 Partly Cloudy SCT050 SCT055 SCT070 69.8 51.8 53% 29.82 0.0
07 19:15 N 13 G 17 10.00 Mostly Cloudy BKN055 BKN070 BKN085 71.6 53.6 53% 29.81 0.0
07 18:55 N 7 10.00 Mostly Cloudy SCT055 SCT070 BKN085 73.4 55.4 53% 29.8 0.0
07 18:35 NW 8 10.00 Mostly Cloudy BKN055 75.2 53.6 47% 78 29.78 0.0
07 18:15 W 10 G 16 10.00 Partly Cloudy SCT055 SCT065 77 53.6 44% 78 29.77 0.0
07 17:55 W 15 G 21 10.00 Partly Cloudy SCT050 SCT065 SCT075 78.8 53.6 42% 79 29.77 0.0
07 17:35 SW 14 G 18 10.00 Partly Cloudy SCT050 SCT065 77 53.6 44% 78 29.76 0.0
07 17:15 W 14 G 22 10.00 Partly Cloudy SCT050 78.8 53.6 42% 79 29.76 0.0
07 16:55 W 13 G 18 10.00 Mostly Cloudy BKN050 BKN055 BKN070 78.8 55.4 45% 79 29.75 0.0
07 16:35 SW 8 G 17 7.00 Mostly Cloudy SCT049 BKN055 BKN065 77 57.2 51% 79 29.75 0.0
07 16:15 W 14 G 20 10.00 Mostly Cloudy SCT041 SCT048 BKN060 77 55.4 47% 79 29.76 0.0
07 15:55 SW 8 10.00 Mostly Cloudy BKN041 BKN050 77 59 54% 79 29.76 0.0
07 15:35 SW 12 G 17 10.00 Mostly Cloudy SCT039 BKN047 BKN050 77 59 54% 79 29.77 0.0
07 15:15 SW 5 10.00 Mostly Cloudy SCT039 BKN044 BKN050 75.2 59 57% 78 29.77 0.0
07 14:55 SW 7 10.00 Mostly Cloudy SCT039 BKN046 BKN060 75.2 59 57% 78 29.79 0.0
07 14:35 SW 6 10.00 Partly Cloudy SCT036 SCT047 75.2 60.8 61% 77 29.8 0.0
07 14:15 W 8 7.00 Partly Cloudy SCT030 SCT036 SCT043 73.4 59 61% 29.79 0.0
07 13:50 SW 9 10.00 Mostly Cloudy BKN028 BKN035 BKN040 73.4 59 61% 29.79 0.0
07 13:35 SW 9 G 17 10.00 Mostly Cloudy SCT025 BKN032 73.4 60.8 65% 29.79 0.0
07 13:15 W 8 10.00 Mostly Cloudy SCT021 BKN028 71.6 60.8 69% 29.8 0.0
07 12:55 SW 6 10.00 Partly Cloudy SCT019 SCT027 SCT110 71.6 60.8 69% 29.81 0.0
07 12:35 SW 6 10.00 Partly Cloudy SCT019 SCT026 SCT110 69.8 60.8 73% 29.82 0.0
07 12:15 SW 6 10.00 Partly Cloudy SCT014 SCT110 68 60.8 78% 29.82 0.0
07 11:55 W 9 10.00 Mostly Cloudy BKN012 BKN017 BKN110 66.2 62.6 88% 29.82 0.0
07 11:35 W 8 10.00 Mostly Cloudy BKN012 BKN018 64.4 62.6 94% 29.85 0.0
07 11:15 W 8 10.00 Mostly Cloudy SCT009 SCT013 BKN120 64.4 62.6 94% 29.83 0.0
07 10:55 W 5 10.00 Partly Cloudy SCT007 SCT120 64.4 62.6 94% 29.81 0.0
Date Time (edt) Wind (mph) Vis. (mi.) Weather Sky Cond. Air Dwpt Max. Min. Relative Humidity Wind Chill (°F) Heat Index (°F) altimeter (in) sea level (mb) 1 hr 3 hr 6 hr
6 hour
Temperature (ºF) Pressure Precipitation (in)